Time;durP1;ratioP1;P1;durP2;ratioP2;P2;SDS_P1;SDS_P2;PMS_P1;PMS_P2;Temp;Humidity;BMP_temperature;BMP_pressure;BME280_temperature;BME280_humidity;BME280_pressure;Samples;Min_cycle;Max_cycle;Signal;HPM_P1;HPM_P2
2022/04/08 00:00:58;;;;;;;6.03;1.60;;;;;;;;;;5120750;28;20435;-80
2022/04/08 00:03:26;;;;;;;5.60;1.50;;;;;;;;;;5122473;28;20446;-78
2022/04/08 00:05:54;;;;;;;4.00;1.93;;;;;;;;;;5124033;28;20463;-79
2022/04/08 00:08:21;;;;;;;8.17;4.37;;;;;;;;;;5124111;28;20811;-77
2022/04/08 00:10:48;;;;;;;10.77;3.60;;;;;;;;;;5116843;28;20450;-78
2022/04/08 00:13:15;;;;;;;9.70;2.63;;;;;;;;;;5115225;28;21015;-77
2022/04/08 00:15:42;;;;;;;6.57;1.70;;;;;;;;;;5115792;28;20454;-77
2022/04/08 00:18:09;;;;;;;9.77;2.53;;;;;;;;;;5115087;28;20442;-80
2022/04/08 00:20:38;;;;;;;3.10;2.10;;;;;;;;;;5115450;28;20434;-78
2022/04/08 00:23:05;;;;;;;4.53;1.60;;;;;;;;;;5114550;28;20839;-77
2022/04/08 00:25:32;;;;;;;5.73;1.80;;;;;;;;;;5115171;28;20466;-78
2022/04/08 00:27:59;;;;;;;1.70;1.50;;;;;;;;;;5117526;28;20487;-77
2022/04/08 00:30:26;;;;;;;4.87;1.70;;;;;;;;;;5118317;28;20441;-78
2022/04/08 00:32:53;;;;;;;3.83;1.93;;;;;;;;;;5116869;28;20483;-78
2022/04/08 00:35:20;;;;;;;4.63;1.97;;;;;;;;;;5116138;28;20473;-78
2022/04/08 00:37:50;;;;;;;2.27;1.73;;;;;;;;;;5116273;28;20449;-78
2022/04/08 00:40:17;;;;;;;3.80;1.53;;;;;;;;;;5117504;28;20442;-79
2022/04/08 00:42:44;;;;;;;7.73;2.50;;;;;;;;;;5116285;28;20439;-77
2022/04/08 00:45:11;;;;;;;2.93;1.83;;;;;;;;;;5114394;28;20465;-76
2022/04/08 00:47:41;;;;;;;4.03;2.00;;;;;;;;;;5114968;28;20446;-77
2022/04/08 00:50:09;;;;;;;4.90;1.53;;;;;;;;;;5115019;28;20442;-77
2022/04/08 00:52:36;;;;;;;2.37;1.90;;;;;;;;;;5116293;28;21019;-77
2022/04/08 00:55:06;;;;;;;5.33;1.90;;;;;;;;;;5115910;28;20467;-79
2022/04/08 00:57:33;;;;;;;3.63;1.60;;;;;;;;;;5115403;28;20934;-76
2022/04/08 01:00:01;;;;;;;2.50;1.90;;;;;;;;;;5116182;28;20826;-76
2022/04/08 01:02:29;;;;;;;4.17;2.10;;;;;;;;;;5117836;28;20470;-78
2022/04/08 01:04:57;;;;;;;4.33;1.80;;;;;;;;;;5115847;28;20525;-78
2022/04/08 01:07:24;;;;;;;3.50;1.53;;;;;;;;;;5114854;28;21112;-78
2022/04/08 01:09:52;;;;;;;2.43;1.67;;;;;;;;;;5114299;28;20453;-77
2022/04/08 01:12:20;;;;;;;3.90;1.90;;;;;;;;;;5114516;28;20501;-79
2022/04/08 01:14:48;;;;;;;4.93;2.10;;;;;;;;;;5117612;28;20461;-78
2022/04/08 01:17:15;;;;;;;3.30;2.17;;;;;;;;;;5129367;28;20441;-78
2022/04/08 01:19:42;;;;;;;3.90;2.07;;;;;;;;;;5124962;28;20486;-77
2022/04/08 01:22:09;;;;;;;5.37;3.50;;;;;;;;;;5113154;28;20431;-77
2022/04/08 01:24:37;;;;;;;5.33;1.80;;;;;;;;;;5113073;28;20469;-78
2022/04/08 01:27:05;;;;;;;2.73;1.40;;;;;;;;;;5113290;28;20485;-78
2022/04/08 01:29:32;;;;;;;6.60;2.50;;;;;;;;;;5113093;28;20534;-76
2022/04/08 01:31:59;;;;;;;3.03;1.77;;;;;;;;;;5112875;28;20573;-77
2022/04/08 01:34:26;;;;;;;2.13;1.47;;;;;;;;;;5112807;28;20596;-76
2022/04/08 01:36:53;;;;;;;2.80;1.43;;;;;;;;;;5113096;28;20544;-77
2022/04/08 01:39:20;;;;;;;2.70;1.60;;;;;;;;;;5113003;28;20446;-77
2022/04/08 01:41:47;;;;;;;3.33;2.10;;;;;;;;;;5112875;28;20464;-77
2022/04/08 01:44:16;;;;;;;4.10;1.70;;;;;;;;;;5112197;28;20468;-77
2022/04/08 01:46:43;;;;;;;4.73;1.87;;;;;;;;;;5112960;28;20437;-78
2022/04/08 01:49:10;;;;;;;5.50;2.10;;;;;;;;;;5112280;28;20442;-78
2022/04/08 01:51:37;;;;;;;6.07;2.00;;;;;;;;;;5112675;28;20449;-78
2022/04/08 01:54:04;;;;;;;2.80;1.50;;;;;;;;;;5112445;28;20482;-78
2022/04/08 01:56:31;;;;;;;3.30;1.97;;;;;;;;;;5113623;28;20446;-76
2022/04/08 01:58:58;;;;;;;3.87;1.87;;;;;;;;;;5120252;28;20460;-76
2022/04/08 02:01:26;;;;;;;4.63;1.70;;;;;;;;;;5113777;28;20438;-77
2022/04/08 02:03:53;;;;;;;3.37;1.90;;;;;;;;;;5111794;28;20480;-77
2022/04/08 02:06:20;;;;;;;4.47;2.17;;;;;;;;;;5111934;28;20447;-78
2022/04/08 02:08:49;;;;;;;3.33;1.50;;;;;;;;;;5112386;28;20454;-78
2022/04/08 02:11:17;;;;;;;3.50;1.73;;;;;;;;;;5111947;28;21015;-77
2022/04/08 02:13:43;;;;;;;3.70;1.50;;;;;;;;;;5111634;28;20481;-77
2022/04/08 02:16:11;;;;;;;3.17;1.70;;;;;;;;;;5111878;28;20441;-77
2022/04/08 02:18:39;;;;;;;2.43;1.80;;;;;;;;;;5112044;28;20438;-77
2022/04/08 02:21:06;;;;;;;7.87;1.77;;;;;;;;;;5112047;28;20548;-78
2022/04/08 02:23:34;;;;;;;2.83;1.80;;;;;;;;;;5111715;28;20445;-79
2022/04/08 02:26:01;;;;;;;5.07;2.53;;;;;;;;;;5112349;28;20429;-77
2022/04/08 02:28:28;;;;;;;2.40;1.50;;;;;;;;;;5111858;28;20498;-77
2022/04/08 02:30:55;;;;;;;5.70;1.87;;;;;;;;;;5111638;28;20806;-77
2022/04/08 02:33:22;;;;;;;3.33;1.73;;;;;;;;;;5111573;28;20477;-77
2022/04/08 02:35:51;;;;;;;5.37;1.80;;;;;;;;;;5111766;28;20465;-78
2022/04/08 02:38:18;;;;;;;4.73;1.90;;;;;;;;;;5111757;28;20446;-78
2022/04/08 02:40:45;;;;;;;4.10;1.97;;;;;;;;;;5111978;28;20446;-77
2022/04/08 02:43:12;;;;;;;2.23;2.03;;;;;;;;;;5111959;28;20445;-78
2022/04/08 02:45:39;;;;;;;6.30;1.93;;;;;;;;;;5111899;28;20469;-78
2022/04/08 02:48:07;;;;;;;2.50;1.60;;;;;;;;;;5112291;28;20493;-78
2022/04/08 02:50:34;;;;;;;4.70;1.93;;;;;;;;;;5112456;28;20445;-77
2022/04/08 02:53:02;;;;;;;3.70;2.20;;;;;;;;;;5112728;28;20538;-77
2022/04/08 02:55:29;;;;;;;4.97;2.07;;;;;;;;;;5115175;28;20461;-79
2022/04/08 02:57:56;;;;;;;4.73;1.67;;;;;;;;;;5120352;28;20503;-77
2022/04/08 03:00:23;;;;;;;4.00;1.77;;;;;;;;;;5120142;28;20769;-77
2022/04/08 03:02:50;;;;;;;6.70;2.00;;;;;;;;;;5111735;28;20440;-79
2022/04/08 03:05:18;;;;;;;6.20;1.80;;;;;;;;;;5111262;28;20470;-77
2022/04/08 03:07:45;;;;;;;2.33;1.73;;;;;;;;;;5111755;28;20438;-76
2022/04/08 03:10:13;;;;;;;5.47;1.80;;;;;;;;;;5111685;28;20457;-77
2022/04/08 03:12:41;;;;;;;1.90;1.67;;;;;;;;;;5111422;28;20469;-77
2022/04/08 03:15:08;;;;;;;6.10;1.80;;;;;;;;;;5111653;28;20491;-77
2022/04/08 03:17:36;;;;;;;5.40;1.77;;;;;;;;;;5111378;28;20905;-76
2022/04/08 03:20:03;;;;;;;5.37;1.77;;;;;;;;;;5111530;28;20492;-77
2022/04/08 03:22:30;;;;;;;3.70;1.80;;;;;;;;;;5111196;28;20442;-77
2022/04/08 03:24:57;;;;;;;3.67;1.70;;;;;;;;;;5111249;28;20459;-78
2022/04/08 03:27:26;;;;;;;3.93;1.57;;;;;;;;;;5112262;28;20499;-77
2022/04/08 03:29:53;;;;;;;5.10;1.73;;;;;;;;;;5115124;28;20439;-76
2022/04/08 03:32:20;;;;;;;2.20;1.73;;;;;;;;;;5114988;28;20946;-78
2022/04/08 03:34:47;;;;;;;2.30;1.70;;;;;;;;;;5115095;28;20466;-77
2022/04/08 03:37:16;;;;;;;5.27;1.93;;;;;;;;;;5114606;28;21227;-76
2022/04/08 03:39:43;;;;;;;4.07;1.50;;;;;;;;;;5114935;28;20452;-77
2022/04/08 03:42:10;;;;;;;4.60;2.03;;;;;;;;;;5113468;28;20999;-81
2022/04/08 03:44:39;;;;;;;3.80;1.67;;;;;;;;;;5077220;28;20841;-78
2022/04/08 03:47:06;;;;;;;3.73;1.87;;;;;;;;;;5094699;28;20443;-76
2022/04/08 03:49:36;;;;;;;4.17;1.87;;;;;;;;;;5094639;28;20455;-77
2022/04/08 03:52:05;;;;;;;3.80;1.53;;;;;;;;;;5094372;28;20451;-77
2022/04/08 03:54:32;;;;;;;3.13;1.80;;;;;;;;;;5094506;28;20503;-78
2022/04/08 03:56:59;;;;;;;5.27;2.20;;;;;;;;;;5094392;28;20442;-77
2022/04/08 03:59:26;;;;;;;6.17;2.43;;;;;;;;;;5094150;28;20437;-77
2022/04/08 04:01:54;;;;;;;3.03;2.63;;;;;;;;;;5094048;28;20788;-77
2022/04/08 04:04:21;;;;;;;2.30;1.67;;;;;;;;;;5094015;28;20466;-77
2022/04/08 04:06:48;;;;;;;7.43;1.80;;;;;;;;;;5094331;28;20440;-78
2022/04/08 04:09:15;;;;;;;4.03;2.40;;;;;;;;;;5093999;28;20446;-77
2022/04/08 04:11:42;;;;;;;1.90;1.80;;;;;;;;;;5093796;28;20498;-77
2022/04/08 04:14:09;;;;;;;7.20;2.27;;;;;;;;;;5093381;28;20566;-77
2022/04/08 04:16:36;;;;;;;5.67;1.87;;;;;;;;;;5093739;28;20437;-78
2022/04/08 04:19:05;;;;;;;3.93;1.50;;;;;;;;;;5093773;28;20489;-77
2022/04/08 04:21:33;;;;;;;2.20;1.70;;;;;;;;;;5082879;28;20453;-79
2022/04/08 04:24:00;;;;;;;7.57;1.90;;;;;;;;;;5073241;28;20540;-76
2022/04/08 04:26:27;;;;;;;6.80;1.87;;;;;;;;;;5073912;28;20471;-77
2022/04/08 04:28:54;;;;;;;7.37;2.33;;;;;;;;;;5073653;28;20870;-77
2022/04/08 04:31:21;;;;;;;8.40;2.07;;;;;;;;;;5074646;28;20446;-78
2022/04/08 04:33:48;;;;;;;4.77;1.77;;;;;;;;;;5073786;28;20489;-77
2022/04/08 04:36:16;;;;;;;12.33;2.87;;;;;;;;;;5073223;28;20486;-77
2022/04/08 04:38:43;;;;;;;3.90;1.60;;;;;;;;;;5073536;28;20455;-77
2022/04/08 04:41:10;;;;;;;4.40;1.70;;;;;;;;;;5072949;28;20961;-78
2022/04/08 04:43:37;;;;;;;3.57;1.93;;;;;;;;;;5073211;28;20470;-78
2022/04/08 04:46:04;;;;;;;5.83;2.30;;;;;;;;;;5073330;28;20504;-77
2022/04/08 04:48:31;;;;;;;4.60;1.60;;;;;;;;;;5073481;28;20454;-79
2022/04/08 04:50:59;;;;;;;2.70;1.60;;;;;;;;;;5073170;28;20445;-77
2022/04/08 04:53:27;;;;;;;7.37;1.90;;;;;;;;;;5072361;28;20586;-79
2022/04/08 04:55:56;;;;;;;3.97;1.87;;;;;;;;;;5073342;28;20521;-77
2022/04/08 04:58:23;;;;;;;2.63;2.30;;;;;;;;;;5072448;28;20930;-78
2022/04/08 05:00:50;;;;;;;5.63;2.00;;;;;;;;;;5072767;28;20452;-78
2022/04/08 05:03:17;;;;;;;5.40;2.10;;;;;;;;;;5072653;28;20785;-76
2022/04/08 05:05:44;;;;;;;5.87;1.60;;;;;;;;;;5072624;28;20522;-77
2022/04/08 05:08:11;;;;;;;4.10;1.57;;;;;;;;;;5073013;28;20449;-77
2022/04/08 05:10:39;;;;;;;2.63;2.30;;;;;;;;;;5073298;28;20455;-77
2022/04/08 05:13:06;;;;;;;5.10;2.00;;;;;;;;;;5072426;28;20544;-78
2022/04/08 05:15:38;;;;;;;6.63;2.00;;;;;;;;;;5072780;28;20470;-77
2022/04/08 05:18:05;;;;;;;4.90;1.80;;;;;;;;;;5072612;28;20433;-78
2022/04/08 05:20:33;;;;;;;3.67;2.60;;;;;;;;;;5072914;28;20531;-78
2022/04/08 05:23:00;;;;;;;3.20;1.80;;;;;;;;;;5073918;28;20449;-77
2022/04/08 05:25:27;;;;;;;11.43;2.07;;;;;;;;;;5078567;28;20538;-79
2022/04/08 05:27:55;;;;;;;4.13;2.10;;;;;;;;;;5078517;28;20428;-78
2022/04/08 05:30:22;;;;;;;4.13;1.80;;;;;;;;;;5073406;28;20447;-78
2022/04/08 05:32:49;;;;;;;3.23;1.90;;;;;;;;;;5071855;28;20451;-79
2022/04/08 05:35:17;;;;;;;3.20;2.20;;;;;;;;;;5071945;28;20490;-77
2022/04/08 05:37:44;;;;;;;3.37;1.90;;;;;;;;;;5080584;28;20476;-79
2022/04/08 05:40:14;;;;;;;3.73;1.70;;;;;;;;;;5072884;28;20466;-78
2022/04/08 05:42:42;;;;;;;5.27;2.80;;;;;;;;;;5071298;28;21048;-77
2022/04/08 05:45:11;;;;;;;3.97;2.17;;;;;;;;;;5072205;28;20460;-77
2022/04/08 05:47:38;;;;;;;6.57;2.10;;;;;;;;;;5071617;28;20934;-79
2022/04/08 05:50:06;;;;;;;2.47;1.80;;;;;;;;;;5071468;28;20499;-77
2022/04/08 05:52:33;;;;;;;7.77;2.23;;;;;;;;;;5090821;28;20446;-78
2022/04/08 05:55:00;;;;;;;3.63;2.20;;;;;;;;;;5091609;28;20529;-78
2022/04/08 05:57:27;;;;;;;5.60;2.07;;;;;;;;;;5092126;28;20447;-78
2022/04/08 06:00:01;;;;;;;2.97;1.90;;;;;;;;;;5092170;28;20439;-78
2022/04/08 06:02:29;;;;;;;5.40;2.17;;;;;;;;;;5092072;28;20434;-77
2022/04/08 06:04:56;;;;;;;4.17;1.90;;;;;;;;;;5092046;28;20453;-77
2022/04/08 06:07:24;;;;;;;3.87;1.90;;;;;;;;;;5071935;28;20443;-80
2022/04/08 06:09:51;;;;;;;3.53;1.70;;;;;;;;;;5071747;28;20499;-77
2022/04/08 06:12:19;;;;;;;5.10;2.30;;;;;;;;;;5071599;28;20512;-79
2022/04/08 06:14:46;;;;;;;3.97;2.30;;;;;;;;;;5070841;28;20487;-78
2022/04/08 06:17:13;;;;;;;1.70;1.60;;;;;;;;;;5071721;28;20474;-79
2022/04/08 06:19:45;;;;;;;2.90;1.40;;;;;;;;;;5071372;28;20556;-78
2022/04/08 06:22:12;;;;;;;2.43;1.50;;;;;;;;;;5071741;28;20433;-77
2022/04/08 06:24:39;;;;;;;2.13;1.53;;;;;;;;;;5071036;28;20457;-77
2022/04/08 06:27:06;;;;;;;3.57;1.70;;;;;;;;;;5071575;28;20479;-77
2022/04/08 06:29:33;;;;;;;3.50;1.90;;;;;;;;;;5071489;28;20445;-77
2022/04/08 06:32:00;;;;;;;4.90;1.80;;;;;;;;;;5071656;28;20444;-78
2022/04/08 06:34:27;;;;;;;1.87;1.57;;;;;;;;;;5071290;28;20480;-78
2022/04/08 06:36:55;;;;;;;7.50;2.53;;;;;;;;;;5071845;28;20852;-79
2022/04/08 06:39:22;;;;;;;3.10;1.50;;;;;;;;;;5071920;28;20446;-77
2022/04/08 06:41:49;;;;;;;3.70;1.70;;;;;;;;;;5073558;28;20790;-77
2022/04/08 06:44:16;;;;;;;3.13;1.70;;;;;;;;;;5080700;28;20461;-78
2022/04/08 06:46:43;;;;;;;7.93;2.17;;;;;;;;;;5080332;28;20438;-77
2022/04/08 06:49:11;;;;;;;3.27;2.33;;;;;;;;;;5080578;28;20438;-77
2022/04/08 06:51:38;;;;;;;3.10;1.90;;;;;;;;;;5079553;28;20484;-78
2022/04/08 06:54:06;;;;;;;2.83;1.57;;;;;;;;;;5071300;28;21050;-78
2022/04/08 06:56:33;;;;;;;4.17;1.80;;;;;;;;;;5071456;28;20449;-78
2022/04/08 06:59:00;;;;;;;4.40;2.00;;;;;;;;;;5071512;28;20445;-77
2022/04/08 07:01:27;;;;;;;4.00;2.53;;;;;;;;;;5071304;28;20494;-77
2022/04/08 07:03:54;;;;;;;4.07;1.93;;;;;;;;;;5073820;28;20791;-78
2022/04/08 07:06:21;;;;;;;5.80;1.87;;;;;;;;;;5075241;28;20499;-78
2022/04/08 07:08:48;;;;;;;2.70;2.10;;;;;;;;;;5075139;28;20837;-77
2022/04/08 07:11:17;;;;;;;2.47;1.67;;;;;;;;;;5074824;28;20493;-79
2022/04/08 07:13:44;;;;;;;4.20;1.93;;;;;;;;;;5074423;28;20469;-79
2022/04/08 07:16:11;;;;;;;2.57;1.87;;;;;;;;;;5074911;28;20447;-78
2022/04/08 07:18:38;;;;;;;2.53;1.60;;;;;;;;;;5074852;28;20439;-77
2022/04/08 07:21:05;;;;;;;3.27;1.73;;;;;;;;;;5074784;28;20436;-77
2022/04/08 07:23:32;;;;;;;4.37;1.70;;;;;;;;;;5074566;28;20883;-77
2022/04/08 07:25:59;;;;;;;1.90;1.43;;;;;;;;;;5074999;28;20524;-78
2022/04/08 07:28:27;;;;;;;5.10;1.80;;;;;;;;;;5075207;28;20536;-77
2022/04/08 07:30:54;;;;;;;3.20;1.90;;;;;;;;;;5074695;28;20450;-78
2022/04/08 07:33:21;;;;;;;1.23;1.23;;;;;;;;;;5074659;28;20456;-78
2022/04/08 07:35:48;;;;;;;4.10;2.60;;;;;;;;;;5074882;28;20492;-79
2022/04/08 07:38:16;;;;;;;2.50;1.60;;;;;;;;;;5074708;28;20531;-78
2022/04/08 07:40:43;;;;;;;2.87;1.30;;;;;;;;;;5074871;28;20441;-78
2022/04/08 07:43:10;;;;;;;2.20;1.77;;;;;;;;;;5080193;28;20503;-79
2022/04/08 07:45:39;;;;;;;3.80;1.90;;;;;;;;;;5092742;28;20970;-79
2022/04/08 07:48:06;;;;;;;3.20;1.33;;;;;;;;;;5095027;28;20466;-79
2022/04/08 07:50:33;;;;;;;3.27;1.20;;;;;;;;;;5095179;28;20453;-78
2022/04/08 07:53:00;;;;;;;4.90;2.03;;;;;;;;;;5094524;28;20502;-78
2022/04/08 07:55:28;;;;;;;3.50;1.73;;;;;;;;;;5094843;28;20528;-77
2022/04/08 07:57:55;;;;;;;2.03;1.50;;;;;;;;;;5094772;28;20812;-78
2022/04/08 08:00:22;;;;;;;1.47;1.40;;;;;;;;;;5095655;28;21019;-80
2022/04/08 08:02:51;;;;;;;2.07;1.40;;;;;;;;;;5096547;28;20432;-77
2022/04/08 08:05:20;;;;;;;3.13;1.47;;;;;;;;;;5094982;28;20473;-78
2022/04/08 08:07:48;;;;;;;2.17;1.27;;;;;;;;;;5094436;28;20444;-77
2022/04/08 08:10:16;;;;;;;2.77;1.63;;;;;;;;;;5094867;28;20484;-79
2022/04/08 08:12:43;;;;;;;3.50;1.80;;;;;;;;;;5094477;28;20497;-79
2022/04/08 08:15:10;;;;;;;2.30;1.80;;;;;;;;;;5093544;28;20504;-78
2022/04/08 08:17:37;;;;;;;2.13;1.40;;;;;;;;;;5089071;28;20455;-77
2022/04/08 08:20:07;;;;;;;1.40;1.20;;;;;;;;;;5094341;28;20445;-78
2022/04/08 08:22:34;;;;;;;4.40;1.50;;;;;;;;;;5093904;28;20434;-77
2022/04/08 08:25:01;;;;;;;2.13;1.60;;;;;;;;;;5094056;28;20501;-79
2022/04/08 08:27:28;;;;;;;3.40;1.63;;;;;;;;;;5094661;28;20450;-79
2022/04/08 08:29:55;;;;;;;2.20;1.90;;;;;;;;;;5094283;28;20806;-78
2022/04/08 08:32:22;;;;;;;2.30;1.90;;;;;;;;;;5094062;28;20442;-77
2022/04/08 08:34:49;;;;;;;1.70;1.40;;;;;;;;;;5094647;28;20585;-78
2022/04/08 08:37:18;;;;;;;2.00;1.50;;;;;;;;;;5094925;28;20444;-78
2022/04/08 08:39:45;;;;;;;2.70;1.30;;;;;;;;;;5093560;28;20472;-78
2022/04/08 08:42:12;;;;;;;1.70;1.60;;;;;;;;;;5094221;28;20473;-80
2022/04/08 08:44:40;;;;;;;2.17;1.20;;;;;;;;;;5086142;28;20563;-77
2022/04/08 08:47:11;;;;;;;2.83;1.37;;;;;;;;;;5073537;28;20538;-78
2022/04/08 08:49:39;;;;;;;1.57;1.47;;;;;;;;;;5082053;28;20571;-78
2022/04/08 08:52:07;;;;;;;1.40;1.27;;;;;;;;;;5093266;28;20842;-78
2022/04/08 08:54:35;;;;;;;1.63;1.53;;;;;;;;;;5092796;28;20483;-78
2022/04/08 08:57:03;;;;;;;1.40;1.30;;;;;;;;;;5093671;28;20444;-78
2022/04/08 08:59:30;;;;;;;5.23;1.30;;;;;;;;;;5092892;28;20511;-78
2022/04/08 09:02:01;;;;;;;2.00;1.77;;;;;;;;;;5091881;28;20498;-77
2022/04/08 09:04:28;;;;;;;2.00;1.27;;;;;;;;;;5092396;28;20490;-78
2022/04/08 09:06:55;;;;;;;1.30;1.30;;;;;;;;;;5093266;28;20483;-78
2022/04/08 09:09:30;;;;;;;1.97;1.47;;;;;;;;;;5093000;28;20443;-79
2022/04/08 09:11:59;;;;;;;1.97;1.77;;;;;;;;;;5093154;28;20542;-77
2022/04/08 09:14:30;;;;;;;1.53;1.40;;;;;;;;;;5093973;28;20475;-77
2022/04/08 09:17:01;;;;;;;1.77;1.30;;;;;;;;;;5094246;28;20806;-79
2022/04/08 09:19:32;;;;;;;1.90;1.37;;;;;;;;;;5094029;28;20478;-79
2022/04/08 09:21:59;;;;;;;3.40;1.90;;;;;;;;;;5096731;28;20494;-79
2022/04/08 09:24:28;;;;;;;2.80;1.40;;;;;;;;;;5094223;28;20561;-79
2022/04/08 09:26:57;;;;;;;1.70;1.60;;;;;;;;;;5093435;28;20453;-78
2022/04/08 09:29:27;;;;;;;2.93;2.00;;;;;;;;;;5093811;28;20451;-77
2022/04/08 09:31:56;;;;;;;1.70;1.60;;;;;;;;;;5092763;28;20852;-79
2022/04/08 09:34:23;;;;;;;1.57;1.47;;;;;;;;;;5092701;28;20461;-78
2022/04/08 09:36:50;;;;;;;1.80;1.70;;;;;;;;;;5092700;28;20451;-79
2022/04/08 09:39:18;;;;;;;1.30;1.27;;;;;;;;;;5092721;28;20444;-79
2022/04/08 09:41:46;;;;;;;1.13;1.10;;;;;;;;;;5092549;28;20436;-78
2022/04/08 09:44:14;;;;;;;1.30;1.20;;;;;;;;;;5092758;28;20513;-80
2022/04/08 09:46:43;;;;;;;1.40;1.30;;;;;;;;;;5092871;28;20448;-79
2022/04/08 09:49:10;;;;;;;1.20;1.10;;;;;;;;;;5092327;28;20955;-80
2022/04/08 09:51:38;;;;;;;2.50;2.30;;;;;;;;;;5092682;28;20439;-79
2022/04/08 09:54:06;;;;;;;1.87;1.30;;;;;;;;;;5092892;28;20901;-80
2022/04/08 09:56:35;;;;;;;1.53;1.43;;;;;;;;;;5093031;28;20471;-79
2022/04/08 09:59:05;;;;;;;1.90;1.80;;;;;;;;;;5092109;28;20430;-79
2022/04/08 10:01:32;;;;;;;1.80;1.70;;;;;;;;;;5092381;28;20477;-80
2022/04/08 10:04:01;;;;;;;1.40;1.30;;;;;;;;;;5092340;28;20528;-79
2022/04/08 10:06:29;;;;;;;1.60;1.50;;;;;;;;;;5092443;28;20950;-78
2022/04/08 10:08:56;;;;;;;1.30;1.30;;;;;;;;;;5092377;28;20443;-80
2022/04/08 10:11:25;;;;;;;2.30;1.40;;;;;;;;;;5092158;28;20508;-80
2022/04/08 10:14:00;;;;;;;1.80;1.40;;;;;;;;;;5092984;28;20474;-79
2022/04/08 10:16:27;;;;;;;1.57;1.17;;;;;;;;;;5092867;28;20968;-81
2022/04/08 10:18:55;;;;;;;1.53;1.20;;;;;;;;;;5094598;28;20523;-81
2022/04/08 10:21:24;;;;;;;1.57;1.47;;;;;;;;;;5092696;28;20855;-79
2022/04/08 10:23:51;;;;;;;3.73;2.10;;;;;;;;;;5092291;28;20448;-78
2022/04/08 10:26:19;;;;;;;1.90;1.43;;;;;;;;;;5092700;28;20444;-80
2022/04/08 10:28:47;;;;;;;2.40;1.73;;;;;;;;;;5093076;28;20480;-79
2022/04/08 10:31:18;;;;;;;2.37;1.63;;;;;;;;;;5092494;28;20465;-79
2022/04/08 10:33:49;;;;;;;1.23;1.13;;;;;;;;;;5092065;28;20498;-80
2022/04/08 10:36:16;;;;;;;1.10;1.00;;;;;;;;;;5092523;28;20526;-79
2022/04/08 10:38:45;;;;;;;1.93;1.10;;;;;;;;;;5096514;28;20450;-79
2022/04/08 10:41:12;;;;;;;1.33;1.33;;;;;;;;;;5096318;28;20438;-77
2022/04/08 10:43:46;;;;;;;2.00;1.90;;;;;;;;;;5096206;28;20447;-80
2022/04/08 10:46:13;;;;;;;1.63;1.53;;;;;;;;;;5096557;28;20434;-80
2022/04/08 10:48:40;;;;;;;1.47;1.37;;;;;;;;;;5096306;28;20530;-78
2022/04/08 10:51:10;;;;;;;1.40;0.90;;;;;;;;;;5095958;28;20427;-79
2022/04/08 10:53:41;;;;;;;0.90;0.90;;;;;;;;;;5095752;28;20434;-80
2022/04/08 10:56:12;;;;;;;0.90;0.90;;;;;;;;;;5095629;28;20498;-80
2022/04/08 10:58:43;;;;;;;0.90;0.90;;;;;;;;;;5095869;28;20435;-79
2022/04/08 11:01:17;;;;;;;3.47;1.33;;;;;;;;;;5095514;28;20933;-80
2022/04/08 11:03:46;;;;;;;1.10;1.10;;;;;;;;;;5095770;28;20839;-80
2022/04/08 11:06:13;;;;;;;1.00;1.00;;;;;;;;;;5095398;28;20458;-78
2022/04/08 11:08:40;;;;;;;1.10;1.10;;;;;;;;;;5096205;28;20440;-79
2022/04/08 11:11:08;;;;;;;1.80;0.93;;;;;;;;;;5096515;28;20988;-80
2022/04/08 11:13:36;;;;;;;1.30;1.20;;;;;;;;;;5096720;28;20494;-78
2022/04/08 11:16:04;;;;;;;1.17;1.10;;;;;;;;;;5096947;28;20486;-79
2022/04/08 11:18:32;;;;;;;2.00;1.13;;;;;;;;;;5096965;28;20934;-79
2022/04/08 11:20:59;;;;;;;1.53;1.27;;;;;;;;;;5096427;28;20445;-78
2022/04/08 11:23:27;;;;;;;1.23;1.20;;;;;;;;;;5095152;28;20435;-78
2022/04/08 11:25:54;;;;;;;1.43;1.33;;;;;;;;;;5095381;28;20508;-77
2022/04/08 11:28:23;;;;;;;1.80;1.20;;;;;;;;;;5095940;28;20458;-79
2022/04/08 11:30:56;;;;;;;2.20;1.50;;;;;;;;;;5095758;28;20537;-78
2022/04/08 11:33:23;;;;;;;1.20;1.10;;;;;;;;;;5101696;28;20402;-80
2022/04/08 11:35:55;;;;;;;2.07;1.40;;;;;;;;;;5117665;28;20467;-80
2022/04/08 11:38:22;;;;;;;1.60;1.30;;;;;;;;;;5118021;28;20424;-79
2022/04/08 11:40:49;;;;;;;1.50;1.40;;;;;;;;;;5117994;28;20429;-79
2022/04/08 11:43:18;;;;;;;1.80;1.70;;;;;;;;;;5116538;28;20591;-78
2022/04/08 11:45:45;;;;;;;2.50;1.33;;;;;;;;;;5117248;28;20452;-79
2022/04/08 11:48:15;;;;;;;1.83;1.40;;;;;;;;;;5109741;28;20474;-80
2022/04/08 11:50:43;;;;;;;1.50;1.40;;;;;;;;;;5095144;28;20927;-78
2022/04/08 11:53:14;;;;;;;1.73;1.63;;;;;;;;;;5094931;28;20446;-78
2022/04/08 11:55:43;;;;;;;1.50;1.23;;;;;;;;;;5095132;28;20479;-79
2022/04/08 11:58:18;;;;;;;1.70;1.60;;;;;;;;;;5095425;28;20442;-79
2022/04/08 12:00:45;;;;;;;1.77;1.67;;;;;;;;;;5095118;28;20476;-79
2022/04/08 12:03:18;;;;;;;1.97;1.87;;;;;;;;;;5094450;28;20444;-78
2022/04/08 12:05:46;;;;;;;2.23;2.03;;;;;;;;;;5094553;28;20917;-79
2022/04/08 12:08:14;;;;;;;2.73;2.53;;;;;;;;;;5094399;28;20446;-78
2022/04/08 12:10:41;;;;;;;2.60;2.40;;;;;;;;;;5094523;28;20441;-78
2022/04/08 12:13:15;;;;;;;2.53;2.33;;;;;;;;;;5094457;28;20452;-78
2022/04/08 12:15:43;;;;;;;2.13;2.03;;;;;;;;;;5094495;28;20898;-78
2022/04/08 12:18:11;;;;;;;2.37;2.17;;;;;;;;;;5094622;28;20445;-79
2022/04/08 12:20:41;;;;;;;2.23;2.13;;;;;;;;;;5094751;28;20450;-78
2022/04/08 12:23:09;;;;;;;2.03;1.90;;;;;;;;;;5093950;28;20426;-79
2022/04/08 12:25:37;;;;;;;2.03;1.90;;;;;;;;;;5094046;28;20455;-80
2022/04/08 12:28:10;;;;;;;2.00;1.90;;;;;;;;;;5094361;28;20448;-80
2022/04/08 12:30:37;;;;;;;2.77;1.90;;;;;;;;;;5094385;28;20433;-78
2022/04/08 12:33:04;;;;;;;2.27;2.07;;;;;;;;;;5094360;28;20471;-79
2022/04/08 12:35:31;;;;;;;1.77;1.73;;;;;;;;;;5094243;28;20487;-79
2022/04/08 12:38:03;;;;;;;2.70;2.50;;;;;;;;;;5093937;28;20439;-80
2022/04/08 12:40:30;;;;;;;1.70;1.60;;;;;;;;;;5094597;28;20525;-79
2022/04/08 12:42:57;;;;;;;2.03;1.93;;;;;;;;;;5094456;28;20970;-80
2022/04/08 12:45:24;;;;;;;2.10;1.90;;;;;;;;;;5093369;28;20851;-78
2022/04/08 12:47:52;;;;;;;1.93;1.83;;;;;;;;;;5093404;28;20535;-78
2022/04/08 12:50:19;;;;;;;2.50;2.30;;;;;;;;;;5094279;28;20441;-80
2022/04/08 12:52:46;;;;;;;2.63;2.43;;;;;;;;;;5095267;28;20434;-78
2022/04/08 12:55:15;;;;;;;3.03;2.80;;;;;;;;;;5094180;28;20492;-78
2022/04/08 12:57:42;;;;;;;2.10;2.00;;;;;;;;;;5093885;28;20488;-78
2022/04/08 13:00:12;;;;;;;1.70;1.70;;;;;;;;;;5097312;28;20467;-79
2022/04/08 13:02:40;;;;;;;2.00;1.67;;;;;;;;;;5098696;28;20437;-79
2022/04/08 13:05:07;;;;;;;1.53;1.53;;;;;;;;;;5096031;28;20460;-78
2022/04/08 13:07:34;;;;;;;2.50;2.40;;;;;;;;;;5092748;28;20436;-78
2022/04/08 13:10:01;;;;;;;1.53;1.47;;;;;;;;;;5093571;28;20514;-79
2022/04/08 13:12:29;;;;;;;1.73;1.63;;;;;;;;;;5093037;28;20469;-79
2022/04/08 13:14:56;;;;;;;1.77;1.67;;;;;;;;;;5092693;28;20476;-78
2022/04/08 13:17:23;;;;;;;2.03;1.93;;;;;;;;;;5092908;28;20525;-80
2022/04/08 13:19:50;;;;;;;3.83;2.00;;;;;;;;;;5093092;28;20489;-78
2022/04/08 13:22:18;;;;;;;2.43;2.30;;;;;;;;;;5092882;28;20446;-78
2022/04/08 13:24:45;;;;;;;2.40;2.30;;;;;;;;;;5094761;28;20496;-79
2022/04/08 13:27:12;;;;;;;2.80;2.30;;;;;;;;;;5095258;28;20502;-77
2022/04/08 13:29:44;;;;;;;2.43;2.23;;;;;;;;;;5095377;28;20456;-79
2022/04/08 13:32:11;;;;;;;2.77;2.50;;;;;;;;;;5095222;28;20446;-78
2022/04/08 13:34:38;;;;;;;2.73;2.53;;;;;;;;;;5093507;28;20573;-78
2022/04/08 13:37:07;;;;;;;2.70;2.53;;;;;;;;;;5092530;28;20849;-80
2022/04/08 13:39:34;;;;;;;3.30;2.70;;;;;;;;;;5092854;28;20913;-78
2022/04/08 13:42:01;;;;;;;2.53;2.33;;;;;;;;;;5092508;28;20465;-79
2022/04/08 13:44:28;;;;;;;2.20;2.10;;;;;;;;;;5092248;28;20457;-78
2022/04/08 13:46:56;;;;;;;2.60;2.47;;;;;;;;;;5092198;28;20485;-79
2022/04/08 13:49:23;;;;;;;3.17;2.70;;;;;;;;;;5091937;28;20454;-78
2022/04/08 13:51:51;;;;;;;2.37;2.27;;;;;;;;;;5092476;28;20446;-79
2022/04/08 13:54:18;;;;;;;5.87;5.37;;;;;;;;;;5091177;28;20499;-78
2022/04/08 13:56:45;;;;;;;3.10;2.90;;;;;;;;;;5092149;28;20508;-79
2022/04/08 13:59:12;;;;;;;3.00;2.80;;;;;;;;;;5092009;28;20830;-78
2022/04/08 14:01:39;;;;;;;3.77;3.57;;;;;;;;;;5092221;28;20442;-78
2022/04/08 14:04:10;;;;;;;4.07;3.70;;;;;;;;;;5091650;28;20463;-78
2022/04/08 14:06:37;;;;;;;3.93;3.63;;;;;;;;;;5092357;28;20428;-79
2022/04/08 14:09:04;;;;;;;3.37;3.07;;;;;;;;;;5092186;28;20531;-79
2022/04/08 14:11:31;;;;;;;3.70;3.40;;;;;;;;;;5092690;28;20809;-80
2022/04/08 14:13:58;;;;;;;3.10;2.90;;;;;;;;;;5091818;28;20525;-78
2022/04/08 14:16:25;;;;;;;3.60;3.40;;;;;;;;;;5092249;28;20536;-79
2022/04/08 14:18:52;;;;;;;3.20;3.00;;;;;;;;;;5091621;28;20999;-79
2022/04/08 14:21:21;;;;;;;2.67;2.57;;;;;;;;;;5092107;28;20501;-78
2022/04/08 14:23:48;;;;;;;3.47;3.27;;;;;;;;;;5091304;28;20922;-79
2022/04/08 14:26:15;;;;;;;3.40;3.20;;;;;;;;;;5091954;28;20447;-79
2022/04/08 14:28:42;;;;;;;3.47;3.27;;;;;;;;;;5092124;28;20435;-79
2022/04/08 14:31:10;;;;;;;3.30;3.20;;;;;;;;;;5091340;28;20917;-79
2022/04/08 14:33:38;;;;;;;3.70;3.50;;;;;;;;;;5091398;28;20436;-79
2022/04/08 14:36:05;;;;;;;3.57;3.27;;;;;;;;;;5091440;28;20451;-80
2022/04/08 14:38:34;;;;;;;4.50;4.20;;;;;;;;;;5091739;28;20567;-78
2022/04/08 14:41:01;;;;;;;4.40;4.10;;;;;;;;;;5091584;28;20528;-78
2022/04/08 14:43:28;;;;;;;4.03;3.73;;;;;;;;;;5091555;28;20445;-79
2022/04/08 14:45:55;;;;;;;4.80;4.40;;;;;;;;;;5091768;28;20471;-79